Time,TemperatureF,DewpointF,PressureIn,WindDirection,WindDirectionDegrees,WindSpeedMPH,WindSpeedGustMPH,Humidity,HourlyPrecipIn,Conditions,Clouds,dailyrainin,SoftwareType,DateUTC
2013-05-30 00:01:00,60.6,57.7,29.64,ESE,113,7.5,8.0,90,0.00,,,0.00,WUHU216HW,2013-05-30 05:01:00,
2013-05-30 00:06:00,60.9,57.7,29.64,East,90,8.0,8.5,89,0.00,,,0.00,WUHU216HW,2013-05-30 05:06:00,
2013-05-30 00:11:00,60.9,57.4,29.63,East,90,7.3,8.9,88,0.00,,,0.00,WUHU216HW,2013-05-30 05:11:00,
2013-05-30 00:16:00,60.9,57.1,29.64,ESE,113,2.6,8.0,87,0.00,,,0.00,WUHU216HW,2013-05-30 05:16:00,
2013-05-30 00:21:00,60.9,57.4,29.63,SE,135,0.5,6.6,88,0.02,,,0.02,WUHU216HW,2013-05-30 05:21:00,
2013-05-30 00:26:00,60.9,57.4,29.63,South,180,0.0,6.6,88,0.04,,,0.04,WUHU216HW,2013-05-30 05:26:00,
2013-05-30 00:31:00,61.1,57.6,29.64,SE,135,0.0,0.7,88,0.04,,,0.04,WUHU216HW,2013-05-30 05:31:00,
2013-05-30 00:36:00,61.3,57.7,29.63,East,90,7.4,7.4,88,0.04,,,0.04,WUHU216HW,2013-05-30 05:36:00,
2013-05-30 00:41:00,61.3,57.7,29.63,East,90,7.7,7.7,88,0.04,,,0.04,WUHU216HW,2013-05-30 05:41:00,
2013-05-30 00:46:00,61.3,57.1,29.62,East,90,8.0,8.0,86,0.04,,,0.04,WUHU216HW,2013-05-30 05:46:00,
2013-05-30 00:51:00,61.5,56.9,29.62,East,90,5.9,8.0,85,0.04,,,0.04,WUHU216HW,2013-05-30 05:51:00,
2013-05-30 00:56:00,61.5,56.3,29.62,East,90,6.1,8.0,83,0.04,,,0.04,WUHU216HW,2013-05-30 05:56:00,
2013-05-30 01:01:00,61.3,56.4,29.62,East,90,7.0,8.0,84,0.04,,,0.04,WUHU216HW,2013-05-30 06:01:00,
2013-05-30 01:06:00,61.1,56.6,29.62,East,90,6.4,7.0,85,0.04,,,0.04,WUHU216HW,2013-05-30 06:06:00,
2013-05-30 01:11:00,61.5,57.3,29.62,East,90,7.2,8.5,86,0.04,,,0.04,WUHU216HW,2013-05-30 06:11:00,
2013-05-30 01:16:00,61.5,57.9,29.62,East,90,9.1,9.1,88,0.04,,,0.04,WUHU216HW,2013-05-30 06:16:00,
2013-05-30 01:21:00,61.8,58.3,29.62,ESE,113,6.4,8.8,88,0.00,,,0.04,WUHU216HW,2013-05-30 06:21:00,
2013-05-30 01:26:00,62.2,58.6,29.62,East,90,5.9,8.5,88,0.00,,,0.04,WUHU216HW,2013-05-30 06:26:00,
2013-05-30 01:31:00,62.4,59.1,29.62,ESE,113,9.1,9.1,89,0.00,,,0.04,WUHU216HW,2013-05-30 06:31:00,
2013-05-30 01:36:00,62.4,59.1,29.62,ESE,113,6.6,9.1,89,0.00,,,0.04,WUHU216HW,2013-05-30 06:36:00,
2013-05-30 01:41:00,62.4,59.1,29.62,East,90,7.7,8.3,89,0.00,,,0.04,WUHU216HW,2013-05-30 06:41:00,
2013-05-30 01:45:00,62.4,59.1,29.62,East,90,6.4,8.3,89,0.00,,,0.04,WUHU216HW,2013-05-30 06:45:00,
2013-05-30 01:50:00,62.4,59.5,29.61,ESE,113,8.0,8.8,90,0.00,,,0.04,WUHU216HW,2013-05-30 06:50:00,
2013-05-30 01:55:00,62.4,59.5,29.62,East,90,7.4,8.8,90,0.00,,,0.04,WUHU216HW,2013-05-30 06:55:00,
2013-05-30 02:00:00,62.4,59.5,29.63,SE,135,7.4,9.6,90,0.00,,,0.04,WUHU216HW,2013-05-30 07:00:00,
2013-05-30 02:05:00,62.4,59.5,29.62,East,90,10.7,10.7,90,0.00,,,0.04,WUHU216HW,2013-05-30 07:05:00,
2013-05-30 02:10:00,62.4,59.5,29.62,ESE,113,6.6,10.7,90,0.00,,,0.04,WUHU216HW,2013-05-30 07:10:00,
2013-05-30 02:15:00,62.4,59.5,29.61,ESE,113,8.0,11.1,90,0.00,,,0.04,WUHU216HW,2013-05-30 07:15:00,
2013-05-30 02:20:00,62.4,59.5,29.59,East,90,8.3,8.3,90,0.00,,,0.04,WUHU216HW,2013-05-30 07:20:00,
2013-05-30 02:25:00,62.4,59.5,29.58,East,90,0.0,8.6,90,0.00,,,0.04,WUHU216HW,2013-05-30 07:25:00,
2013-05-30 02:30:00,62.4,59.5,29.58,East,90,4.1,8.6,90,0.00,,,0.04,WUHU216HW,2013-05-30 07:30:00,
2013-05-30 02:35:00,62.4,59.5,29.57,East,90,4.0,6.6,90,0.00,,,0.04,WUHU216HW,2013-05-30 07:35:00,
2013-05-30 02:40:00,62.4,59.5,29.57,East,90,5.0,6.4,90,0.00,,,0.04,WUHU216HW,2013-05-30 07:40:00,
2013-05-30 02:45:00,62.2,59.3,29.56,East,90,8.4,8.4,90,0.00,,,0.04,WUHU216HW,2013-05-30 07:45:00,
2013-05-30 02:50:00,62.2,59.3,29.57,East,90,5.5,8.0,90,0.00,,,0.04,WUHU216HW,2013-05-30 07:50:00,
2013-05-30 02:55:00,62.2,59.3,29.57,East,90,7.8,8.4,90,0.00,,,0.04,WUHU216HW,2013-05-30 07:55:00,
2013-05-30 03:00:00,62.2,59.3,29.57,East,90,7.8,7.8,90,0.00,,,0.04,WUHU216HW,2013-05-30 08:00:00,
2013-05-30 03:05:00,62.2,59.3,29.57,East,90,9.1,9.1,90,0.00,,,0.04,WUHU216HW,2013-05-30 08:05:00,
2013-05-30 03:10:00,62.4,59.5,29.57,ESE,113,7.8,9.1,90,0.00,,,0.04,WUHU216HW,2013-05-30 08:10:00,
2013-05-30 03:15:00,62.4,59.5,29.57,ESE,113,7.5,8.6,90,0.00,,,0.04,WUHU216HW,2013-05-30 08:15:00,
2013-05-30 03:20:00,62.4,59.5,29.58,East,90,8.4,8.6,90,0.00,,,0.04,WUHU216HW,2013-05-30 08:20:00,
2013-05-30 03:25:00,62.4,59.5,29.58,East,99,6.9,8.6,90,0.00,,,0.04,WUHU216HW,2013-05-30 08:25:00,
2013-05-30 03:30:00,62.4,59.5,29.58,ESE,113,8.0,8.0,90,0.00,,,0.04,WUHU216HW,2013-05-30 08:30:00,
2013-05-30 03:35:00,62.4,59.5,29.59,ESE,113,2.5,8.0,90,0.00,,,0.04,WUHU216HW,2013-05-30 08:35:00,
2013-05-30 03:40:00,62.4,59.8,29.59,East,90,7.8,8.0,91,0.00,,,0.04,WUHU216HW,2013-05-30 08:40:00,
2013-05-30 03:45:00,62.4,59.8,29.59,ESE,113,7.3,7.8,91,0.00,,,0.04,WUHU216HW,2013-05-30 08:45:00,
2013-05-30 03:50:00,62.4,59.8,29.59,SE,135,0.0,8.0,91,0.00,,,0.04,WUHU216HW,2013-05-30 08:50:00,
2013-05-30 03:55:00,62.4,59.8,29.59,ESE,113,7.1,8.9,91,0.00,,,0.04,WUHU216HW,2013-05-30 08:55:00,
2013-05-30 04:00:00,62.4,59.8,29.59,East,90,9.5,10.6,91,0.00,,,0.04,WUHU216HW,2013-05-30 09:00:00,
2013-05-30 04:05:00,62.2,59.6,29.59,ESE,113,13.4,13.6,91,0.00,,,0.04,WUHU216HW,2013-05-30 09:05:00,
2013-05-30 04:10:00,61.8,59.1,29.59,ESE,108,10.6,13.6,91,0.00,,,0.04,WUHU216HW,2013-05-30 09:10:00,
2013-05-30 04:15:00,61.5,58.9,29.59,ESE,113,2.5,11.4,91,0.00,,,0.04,WUHU216HW,2013-05-30 09:15:00,
2013-05-30 04:20:00,61.3,58.7,29.58,East,90,10.7,10.7,91,0.00,,,0.04,WUHU216HW,2013-05-30 09:20:00,
2013-05-30 04:25:00,61.1,58.5,29.58,East,90,8.3,10.7,91,0.00,,,0.04,WUHU216HW,2013-05-30 09:25:00,
2013-05-30 04:30:00,60.9,58.3,29.58,East,90,8.8,8.8,91,0.00,,,0.04,WUHU216HW,2013-05-30 09:30:00,
2013-05-30 04:35:00,60.9,58.1,29.57,East,90,7.0,8.8,90,0.00,,,0.04,WUHU216HW,2013-05-30 09:35:00,
2013-05-30 04:40:00,60.9,58.1,29.57,East,90,9.8,10.2,90,0.00,,,0.04,WUHU216HW,2013-05-30 09:40:00,
2013-05-30 04:45:00,60.9,58.1,29.57,SSE,158,5.5,10.2,90,0.00,,,0.04,WUHU216HW,2013-05-30 09:45:00,
2013-05-30 04:50:00,60.8,57.9,29.57,ESE,113,4.0,9.8,90,0.00,,,0.04,WUHU216HW,2013-05-30 09:50:00,
2013-05-30 04:55:00,60.6,57.4,29.57,SE,143,2.9,8.9,89,0.00,,,0.04,WUHU216HW,2013-05-30 09:55:00,
2013-05-30 05:00:00,60.6,57.4,29.57,SSE,158,1.0,4.8,89,0.00,,,0.04,WUHU216HW,2013-05-30 10:00:00,
2013-05-30 05:05:00,60.4,57.2,29.57,East,90,5.0,5.0,89,0.00,,,0.04,WUHU216HW,2013-05-30 10:05:00,
2013-05-30 05:10:00,60.4,57.2,29.57,SE,135,3.3,5.0,89,0.00,,,0.04,WUHU216HW,2013-05-30 10:10:00,
2013-05-30 05:15:00,60.4,57.2,29.57,SE,135,4.0,4.0,89,0.00,,,0.04,WUHU216HW,2013-05-30 10:15:00,
2013-05-30 05:20:00,60.4,57.2,29.57,ESE,113,8.6,8.6,89,0.00,,,0.04,WUHU216HW,2013-05-30 10:20:00,
2013-05-30 05:25:00,60.4,57.2,29.57,SE,135,6.1,12.0,89,0.00,,,0.04,WUHU216HW,2013-05-30 10:25:00,
2013-05-30 05:30:00,60.4,57.2,29.57,ESE,113,7.7,12.0,89,0.00,,,0.04,WUHU216HW,2013-05-30 10:30:00,
2013-05-30 05:35:00,60.4,57.2,29.57,ESE,113,6.4,8.0,89,0.00,,,0.04,WUHU216HW,2013-05-30 10:35:00,
2013-05-30 05:40:00,60.2,57.0,29.57,ESE,113,8.9,8.9,89,0.00,,,0.04,WUHU216HW,2013-05-30 10:40:00,
2013-05-30 05:45:00,60.2,57.0,29.57,SE,135,9.1,9.1,89,0.00,,,0.04,WUHU216HW,2013-05-30 10:45:00,
2013-05-30 05:50:00,60.0,56.8,29.57,SE,135,9.4,9.4,89,0.00,,,0.04,WUHU216HW,2013-05-30 10:50:00,
2013-05-30 05:55:00,60.0,56.8,29.57,SE,135,2.5,9.8,89,0.00,,,0.04,WUHU216HW,2013-05-30 10:55:00,
2013-05-30 06:00:00,60.0,56.8,29.56,SSE,158,2.8,5.0,89,0.00,,,0.04,WUHU216HW,2013-05-30 11:00:00,
2013-05-30 06:05:00,60.0,56.8,29.56,SSE,158,7.0,7.0,89,0.00,,,0.04,WUHU216HW,2013-05-30 11:05:00,
2013-05-30 06:10:00,60.0,56.8,29.56,SE,135,0.0,7.0,89,0.00,,,0.04,WUHU216HW,2013-05-30 11:10:00,
2013-05-30 06:15:00,60.0,56.8,29.56,SSE,158,1.8,9.1,89,0.00,,,0.04,WUHU216HW,2013-05-30 11:15:00,
2013-05-30 06:20:00,60.0,56.8,29.55,ESE,113,7.0,9.1,89,0.00,,,0.04,WUHU216HW,2013-05-30 11:20:00,
2013-05-30 06:25:00,60.0,56.8,29.56,South,180,1.3,8.8,89,0.00,,,0.04,WUHU216HW,2013-05-30 11:25:00,
2013-05-30 06:30:00,60.2,57.0,29.55,South,180,0.0,8.8,89,0.00,,,0.04,WUHU216HW,2013-05-30 11:30:00,
2013-05-30 06:35:00,60.4,57.2,29.55,ESE,113,5.3,5.3,89,0.00,,,0.04,WUHU216HW,2013-05-30 11:35:00,
2013-05-30 06:40:00,60.4,57.2,29.55,East,90,4.0,5.3,89,0.00,,,0.04,WUHU216HW,2013-05-30 11:40:00,
2013-05-30 06:45:00,60.4,57.2,29.55,East,90,7.3,7.3,89,0.00,,,0.04,WUHU216HW,2013-05-30 11:45:00,
2013-05-30 06:50:00,60.4,57.2,29.54,East,90,4.8,7.3,89,0.00,,,0.04,WUHU216HW,2013-05-30 11:50:00,
2013-05-30 06:55:00,60.4,57.2,29.55,East,90,5.8,7.8,89,0.00,,,0.04,WUHU216HW,2013-05-30 11:55:00,
2013-05-30 07:00:00,60.4,57.2,29.55,East,90,6.6,7.4,89,0.00,,,0.04,WUHU216HW,2013-05-30 12:00:00,
2013-05-30 07:05:00,60.4,57.2,29.55,East,90,6.4,11.2,89,0.00,,,0.04,WUHU216HW,2013-05-30 12:05:00,
2013-05-30 07:10:00,60.4,57.2,29.55,ESE,113,8.0,11.6,89,0.00,,,0.04,WUHU216HW,2013-05-30 12:10:00,
2013-05-30 07:15:00,60.6,57.4,29.55,East,90,1.9,9.5,89,0.00,,,0.04,WUHU216HW,2013-05-30 12:15:00,
2013-05-30 07:20:00,60.6,57.4,29.55,SE,135,6.6,9.5,89,0.00,,,0.04,WUHU216HW,2013-05-30 12:20:00,
2013-05-30 07:25:00,60.6,57.4,29.55,East,90,3.5,6.6,89,0.00,,,0.04,WUHU216HW,2013-05-30 12:25:00,
2013-05-30 07:30:00,60.6,57.4,29.55,ENE,68,3.6,7.5,89,0.00,,,0.04,WUHU216HW,2013-05-30 12:30:00,
2013-05-30 07:35:00,60.9,57.4,29.55,East,90,7.7,7.7,88,0.00,,,0.04,WUHU216HW,2013-05-30 12:35:00,
2013-05-30 07:40:00,60.9,57.4,29.56,ESE,113,3.0,9.8,88,0.00,,,0.04,WUHU216HW,2013-05-30 12:40:00,
2013-05-30 07:45:00,60.9,57.4,29.56,SE,135,10.6,10.6,88,0.00,,,0.04,WUHU216HW,2013-05-30 12:45:00,
2013-05-30 07:50:00,60.9,57.4,29.55,SE,135,8.9,10.6,88,0.00,,,0.04,WUHU216HW,2013-05-30 12:50:00,
2013-05-30 07:55:00,60.9,57.4,29.55,South,180,6.4,8.9,88,0.00,,,0.04,WUHU216HW,2013-05-30 12:55:00,
2013-05-30 08:00:00,60.9,57.4,29.56,SE,135,7.0,7.0,88,0.00,,,0.04,WUHU216HW,2013-05-30 13:00:00,
2013-05-30 08:05:00,60.8,57.2,29.56,SSE,158,9.4,9.4,88,0.00,,,0.04,WUHU216HW,2013-05-30 13:05:00,
2013-05-30 08:10:00,60.9,57.4,29.55,East,90,0.0,9.4,88,0.00,,,0.04,WUHU216HW,2013-05-30 13:10:00,
2013-05-30 08:15:00,60.9,57.4,29.55,SSE,158,7.2,8.8,88,0.00,,,0.04,WUHU216HW,2013-05-30 13:15:00,
2013-05-30 08:20:00,61.3,57.7,29.56,SE,135,7.7,8.8,88,0.00,,,0.04,WUHU216HW,2013-05-30 13:20:00,
2013-05-30 08:25:00,61.8,58.3,29.54,SSE,158,7.0,9.1,88,0.00,,,0.04,WUHU216HW,2013-05-30 13:25:00,
2013-05-30 08:30:00,62.2,58.3,29.54,SE,135,1.6,9.1,87,0.00,,,0.04,WUHU216HW,2013-05-30 13:30:00,
2013-05-30 08:34:00,62.7,58.8,29.54,ESE,113,5.3,7.3,87,0.00,,,0.04,WUHU216HW,2013-05-30 13:34:00,
2013-05-30 08:39:00,63.5,59.2,29.54,ESE,113,5.5,7.3,86,0.00,,,0.04,WUHU216HW,2013-05-30 13:39:00,
2013-05-30 08:44:00,64.0,59.1,29.54,ESE,113,6.6,8.0,84,0.00,,,0.04,WUHU216HW,2013-05-30 13:44:00,
2013-05-30 08:49:00,64.2,58.9,29.54,SE,135,6.4,8.0,83,0.00,,,0.04,WUHU216HW,2013-05-30 13:49:00,
2013-05-30 08:54:00,64.5,58.9,29.54,SE,126,7.9,11.6,82,0.00,,,0.04,WUHU216HW,2013-05-30 13:54:00,
2013-05-30 08:59:00,64.5,58.9,29.54,ENE,68,6.1,11.2,82,0.00,,,0.04,WUHU216HW,2013-05-30 13:59:00,
2013-05-30 09:04:00,64.4,58.4,29.54,ESE,113,13.1,13.1,81,0.00,,,0.04,WUHU216HW,2013-05-30 14:04:00,
2013-05-30 09:09:00,64.4,58.4,29.54,SSE,158,4.2,12.6,81,0.00,,,0.04,WUHU216HW,2013-05-30 14:09:00,
2013-05-30 09:14:00,64.7,58.4,29.54,SSE,158,7.7,11.8,80,0.00,,,0.04,WUHU216HW,2013-05-30 14:14:00,
2013-05-30 09:19:00,65.3,58.2,29.54,SSE,158,14.3,14.3,78,0.00,,,0.04,WUHU216HW,2013-05-30 14:19:00,
2013-05-30 09:24:00,66.0,57.8,29.54,SSE,158,12.0,14.5,75,0.00,,,0.04,WUHU216HW,2013-05-30 14:24:00,
2013-05-30 09:29:00,66.2,57.6,29.54,SSE,167,17.3,19.3,74,0.00,,,0.04,WUHU216HW,2013-05-30 14:29:00,
2013-05-30 09:34:00,65.8,57.2,29.54,SSE,158,15.4,19.8,74,0.00,,,0.04,WUHU216HW,2013-05-30 14:34:00,
2013-05-30 09:39:00,65.4,57.3,29.54,SSE,158,13.3,20.4,75,0.00,,,0.04,WUHU216HW,2013-05-30 14:39:00,
2013-05-30 09:44:00,66.0,57.8,29.54,SE,135,14.4,20.4,75,0.00,,,0.04,WUHU216HW,2013-05-30 14:44:00,
2013-05-30 09:49:00,66.0,57.4,29.54,SSE,158,19.8,25.2,74,0.00,,,0.04,WUHU216HW,2013-05-30 14:49:00,
2013-05-30 09:54:00,66.3,57.8,29.55,SSE,158,10.4,25.2,74,0.00,,,0.04,WUHU216HW,2013-05-30 14:54:00,
2013-05-30 09:59:00,66.7,57.7,29.54,South,180,18.2,19.8,73,0.00,,,0.04,WUHU216HW,2013-05-30 14:59:00,
2013-05-30 10:04:00,67.2,57.9,29.55,ESE,107,11.4,19.0,72,0.00,,,0.04,WUHU216HW,2013-05-30 15:04:00,
2013-05-30 10:09:00,66.9,57.5,29.54,SSE,158,22.0,22.0,72,0.00,,,0.04,WUHU216HW,2013-05-30 15:09:00,
2013-05-30 10:14:00,66.5,57.6,29.54,South,169,16.7,22.9,73,0.00,,,0.04,WUHU216HW,2013-05-30 15:14:00,
2013-05-30 10:19:00,66.7,57.4,29.54,SSE,168,19.4,20.4,72,0.00,,,0.04,WUHU216HW,2013-05-30 15:19:00,
2013-05-30 10:24:00,66.9,57.9,29.54,SE,135,20.1,20.4,73,0.00,,,0.04,WUHU216HW,2013-05-30 15:24:00,
2013-05-30 10:29:00,67.6,57.9,29.54,SE,135,18.4,25.1,71,0.00,,,0.04,WUHU216HW,2013-05-30 15:29:00,
2013-05-30 10:34:00,68.9,58.7,29.54,South,180,15.7,24.1,70,0.00,,,0.04,WUHU216HW,2013-05-30 15:34:00,
2013-05-30 10:39:00,69.9,58.4,29.54,SSE,158,12.3,24.0,67,0.00,,,0.04,WUHU216HW,2013-05-30 15:39:00,
2013-05-30 10:44:00,70.7,58.3,29.54,SSE,158,16.6,26.8,65,0.00,,,0.04,WUHU216HW,2013-05-30 15:44:00,
2013-05-30 10:49:00,71.2,58.4,29.54,South,180,20.9,27.9,64,0.00,,,0.04,WUHU216HW,2013-05-30 15:49:00,
2013-05-30 10:54:00,71.2,57.9,29.54,South,180,20.9,20.9,63,0.00,,,0.04,WUHU216HW,2013-05-30 15:54:00,
2013-05-30 10:59:00,71.4,59.0,29.54,SSE,158,15.7,20.0,65,0.00,,,0.04,WUHU216HW,2013-05-30 15:59:00,
2013-05-30 11:04:00,71.7,58.9,29.54,South,180,17.4,20.0,64,0.00,,,0.04,WUHU216HW,2013-05-30 16:04:00,
2013-05-30 11:09:00,72.5,59.5,29.54,South,180,15.2,17.4,64,0.00,,,0.04,WUHU216HW,2013-05-30 16:09:00,
2013-05-30 11:14:00,72.5,59.5,29.55,South,180,15.2,17.4,63,0.00,,,0.04,WUHU216HW,2013-05-30 16:14:00,
2013-05-30 11:19:00,72.5,59.1,29.55,South,180,15.2,15.2,63,0.00,,,0.04,WUHU216HW,2013-05-30 16:19:00,
2013-05-30 11:24:00,71.9,58.6,29.55,SSE,158,20.0,20.0,63,0.00,,,0.04,WUHU216HW,2013-05-30 16:24:00,
2013-05-30 11:29:00,71.9,58.6,29.55,SSE,158,20.9,20.9,63,0.00,,,0.04,WUHU216HW,2013-05-30 16:29:00,
2013-05-30 11:34:00,71.4,58.1,29.55,South,180,24.5,32.4,63,0.00,,,0.04,WUHU216HW,2013-05-30 16:34:00,
2013-05-30 11:39:00,70.8,58.0,29.55,South,180,17.4,31.1,64,0.00,,,0.04,WUHU216HW,2013-05-30 16:39:00,
2013-05-30 11:44:00,70.8,58.0,29.55,South,180,12.3,25.4,64,0.00,,,0.04,WUHU216HW,2013-05-30 16:44:00,
2013-05-30 11:49:00,71.7,58.4,29.56,South,180,11.8,17.4,63,0.00,,,0.04,WUHU216HW,2013-05-30 16:49:00,
2013-05-30 11:54:00,71.7,58.0,29.56,SSE,158,23.5,23.5,62,0.00,,,0.04,WUHU216HW,2013-05-30 16:54:00,
2013-05-30 11:59:00,71.7,58.4,29.56,South,180,19.3,23.5,63,0.00,,,0.04,WUHU216HW,2013-05-30 16:59:00,
2013-05-30 12:04:00,72.1,57.9,29.56,SSE,167,24.8,28.8,61,0.00,,,0.04,WUHU216HW,2013-05-30 17:04:00,
2013-05-30 12:09:00,71.7,57.6,29.56,South,180,24.0,28.8,61,0.00,,,0.04,WUHU216HW,2013-05-30 17:09:00,
2013-05-30 12:14:00,71.7,58.0,29.56,South,180,24.0,24.0,62,0.00,,,0.04,WUHU216HW,2013-05-30 17:14:00,
2013-05-30 12:19:00,72.1,58.8,29.56,South,180,24.0,24.0,63,0.00,,,0.04,WUHU216HW,2013-05-30 17:19:00,
2013-05-30 12:24:00,72.1,58.8,29.56,South,180,24.0,24.0,63,0.00,,,0.04,WUHU216HW,2013-05-30 17:24:00,
2013-05-30 12:29:00,71.9,58.6,29.56,South,180,24.0,24.0,63,0.00,,,0.04,WUHU216HW,2013-05-30 17:29:00,
2013-05-30 12:34:00,71.9,57.7,29.55,South,180,24.0,24.0,61,0.00,,,0.04,WUHU216HW,2013-05-30 17:34:00,
2013-05-30 12:39:00,71.9,57.7,29.55,South,180,30.4,30.4,61,0.00,,,0.04,WUHU216HW,2013-05-30 17:39:00,
2013-05-30 12:44:00,71.9,57.7,29.56,South,180,30.4,30.4,61,0.00,,,0.04,WUHU216HW,2013-05-30 17:44:00,
2013-05-30 12:49:00,71.9,57.7,29.56,South,180,29.2,29.2,61,0.00,,,0.04,WUHU216HW,2013-05-30 17:49:00,
2013-05-30 13:13:00,70.5,56.8,29.56,SSE,158,19.8,19.8,62,0.00,,,0.04,WUHU216HW,2013-05-30 18:13:00,
2013-05-30 13:18:00,69.9,56.8,29.55,SSE,158,26.8,26.8,63,0.00,,,0.04,WUHU216HW,2013-05-30 18:18:00,
2013-05-30 13:23:00,69.6,56.8,29.55,SSE,158,17.7,26.8,64,0.00,,,0.04,WUHU216HW,2013-05-30 18:23:00,
2013-05-30 13:28:00,70.5,57.7,29.56,South,180,26.5,26.5,64,0.00,,,0.04,WUHU216HW,2013-05-30 18:28:00,
2013-05-30 13:33:00,71.2,57.5,29.56,South,180,18.1,26.5,62,0.00,,,0.04,WUHU216HW,2013-05-30 18:33:00,
2013-05-30 13:38:00,71.2,57.5,29.55,South,180,19.8,25.4,62,0.00,,,0.04,WUHU216HW,2013-05-30 18:38:00,
2013-05-30 13:43:00,71.2,57.5,29.56,South,180,15.7,20.0,62,0.00,,,0.04,WUHU216HW,2013-05-30 18:43:00,
2013-05-30 13:48:00,70.5,57.3,29.55,SSE,158,20.0,20.0,63,0.00,,,0.04,WUHU216HW,2013-05-30 18:48:00,
2013-05-30 13:53:00,70.5,57.1,29.55,SSE,158,22.4,22.4,63,0.00,,,0.04,WUHU216HW,2013-05-30 18:53:00,
2013-05-30 13:58:00,70.5,57.7,29.55,SSE,158,13.3,22.4,64,0.00,,,0.04,WUHU216HW,2013-05-30 18:58:00,
2013-05-30 14:03:00,70.5,58.1,29.55,SSE,158,14.8,23.4,65,0.00,,,0.04,WUHU216HW,2013-05-30 19:03:00,
2013-05-30 14:08:00,70.5,57.7,29.55,South,180,18.4,18.4,64,0.00,,,0.04,WUHU216HW,2013-05-30 19:08:00,
2013-05-30 14:13:00,70.3,57.9,29.56,SE,135,6.1,17.6,65,0.00,,,0.04,WUHU216HW,2013-05-30 19:13:00,
2013-05-30 14:18:00,70.5,58.1,29.56,SE,135,24.3,24.3,65,0.00,,,0.04,WUHU216HW,2013-05-30 19:18:00,
2013-05-30 14:23:00,70.3,57.5,29.55,SSE,158,17.9,23.3,64,0.00,,,0.04,WUHU216HW,2013-05-30 19:23:00,
2013-05-30 14:28:00,70.3,57.9,29.55,SSE,158,17.3,24.3,65,0.00,,,0.04,WUHU216HW,2013-05-30 19:28:00,
2013-05-30 14:33:00,70.3,57.5,29.55,SSE,158,19.3,22.2,64,0.00,,,0.04,WUHU216HW,2013-05-30 19:33:00,
2013-05-30 14:38:00,70.5,57.5,29.55,SSE,158,28.1,28.1,64,0.00,,,0.04,WUHU216HW,2013-05-30 19:38:00,
2013-05-30 14:43:00,70.5,57.7,29.55,South,180,9.4,28.1,64,0.00,,,0.04,WUHU216HW,2013-05-30 19:43:00,
2013-05-30 14:48:00,70.8,57.6,29.55,South,180,9.4,28.1,63,0.00,,,0.04,WUHU216HW,2013-05-30 19:48:00,
2013-05-30 14:53:00,70.7,57.4,29.55,South,180,19.3,19.3,63,0.00,,,0.04,WUHU216HW,2013-05-30 19:53:00,
2013-05-30 14:58:00,70.5,57.3,29.55,SSE,158,24.6,24.6,63,0.00,,,0.04,WUHU216HW,2013-05-30 19:58:00,
2013-05-30 15:03:00,70.3,57.5,29.55,SSW,203,14.2,24.6,64,0.00,,,0.04,WUHU216HW,2013-05-30 20:03:00,
2013-05-30 15:08:00,70.3,57.1,29.55,South,180,23.1,25.6,63,0.00,,,0.04,WUHU216HW,2013-05-30 20:08:00,
2013-05-30 15:13:00,70.8,57.2,29.55,South,180,17.6,22.2,62,0.00,,,0.04,WUHU216HW,2013-05-30 20:13:00,
2013-05-30 15:18:00,70.8,57.6,29.55,South,180,19.6,22.2,63,0.00,,,0.04,WUHU216HW,2013-05-30 20:18:00,
2013-05-30 15:23:00,70.5,56.8,29.55,SSE,158,13.7,19.6,62,0.00,,,0.04,WUHU216HW,2013-05-30 20:23:00,
2013-05-30 15:28:00,70.5,57.3,29.55,South,180,24.4,24.4,63,0.00,,,0.04,WUHU216HW,2013-05-30 20:28:00,
2013-05-30 15:33:00,70.5,57.3,29.54,South,180,25.4,25.4,63,0.00,,,0.04,WUHU216HW,2013-05-30 20:33:00,
2013-05-30 15:38:00,70.5,56.8,29.54,South,180,24.3,25.4,62,0.00,,,0.04,WUHU216HW,2013-05-30 20:38:00,
2013-05-30 15:43:00,71.4,57.7,29.55,South,180,17.0,25.4,62,0.00,,,0.04,WUHU216HW,2013-05-30 20:43:00,
2013-05-30 15:48:00,71.9,58.2,29.54,South,180,19.8,24.1,62,0.00,,,0.04,WUHU216HW,2013-05-30 20:48:00,
2013-05-30 15:53:00,72.3,57.6,29.54,South,180,19.8,23.4,60,0.00,,,0.04,WUHU216HW,2013-05-30 20:53:00,
2013-05-30 15:58:00,72.3,57.6,29.54,SSE,158,21.5,23.4,60,0.00,,,0.04,WUHU216HW,2013-05-30 20:58:00,
2013-05-30 16:03:00,72.1,57.5,29.54,SSE,158,18.6,21.5,60,0.00,,,0.04,WUHU216HW,2013-05-30 21:03:00,
2013-05-30 16:08:00,72.3,58.5,29.54,South,180,10.2,24.1,62,0.00,,,0.04,WUHU216HW,2013-05-30 21:08:00,
2013-05-30 16:13:00,72.1,57.9,29.54,SSE,158,20.4,25.1,61,0.00,,,0.04,WUHU216HW,2013-05-30 21:13:00,
2013-05-30 16:18:00,71.6,57.8,29.54,SSE,158,16.4,21.8,62,0.00,,,0.04,WUHU216HW,2013-05-30 21:18:00,
2013-05-30 16:23:00,71.0,57.8,29.53,ESE,113,7.4,20.9,63,0.00,,,0.04,WUHU216HW,2013-05-30 21:23:00,
2013-05-30 16:28:00,71.2,58.4,29.53,SSE,158,13.9,13.9,64,0.00,,,0.04,WUHU216HW,2013-05-30 21:28:00,
2013-05-30 16:33:00,71.4,58.5,29.53,SE,135,14.2,14.8,64,0.00,,,0.04,WUHU216HW,2013-05-30 21:33:00,
2013-05-30 16:38:00,71.9,58.2,29.53,SSE,158,13.6,15.4,62,0.00,,,0.04,WUHU216HW,2013-05-30 21:38:00,
2013-05-30 16:43:00,71.9,58.6,29.53,SSE,158,14.5,18.4,63,0.00,,,0.04,WUHU216HW,2013-05-30 21:43:00,
2013-05-30 16:48:00,72.5,58.7,29.53,SE,135,12.0,17.6,62,0.00,,,0.04,WUHU216HW,2013-05-30 21:48:00,
2013-05-30 16:53:00,73.0,58.3,29.53,SE,135,12.6,13.9,60,0.00,,,0.04,WUHU216HW,2013-05-30 21:53:00,
2013-05-30 16:58:00,73.4,58.1,29.53,SE,135,20.0,20.0,59,0.00,,,0.04,WUHU216HW,2013-05-30 21:58:00,
2013-05-30 17:03:00,73.9,58.6,29.52,SSE,158,20.6,20.6,59,0.00,,,0.04,WUHU216HW,2013-05-30 22:03:00,
2013-05-30 17:08:00,73.7,57.9,29.53,SSE,158,23.0,23.0,58,0.00,,,0.04,WUHU216HW,2013-05-30 22:08:00,
2013-05-30 17:13:00,73.5,57.3,29.52,SSE,158,22.4,23.0,57,0.00,,,0.04,WUHU216HW,2013-05-30 22:13:00,
2013-05-30 17:18:00,73.4,57.1,29.52,SSE,158,14.5,24.0,57,0.00,,,0.04,WUHU216HW,2013-05-30 22:18:00,
2013-05-30 17:23:00,73.4,57.1,29.53,SSE,158,14.5,14.5,57,0.00,,,0.04,WUHU216HW,2013-05-30 22:23:00,
2013-05-30 17:28:00,73.4,58.1,29.53,SSE,158,14.5,14.5,59,0.00,,,0.04,WUHU216HW,2013-05-30 22:28:00,
2013-05-30 17:33:00,73.4,58.1,29.53,SSE,158,13.9,13.9,59,0.00,,,0.04,WUHU216HW,2013-05-30 22:33:00,
2013-05-30 17:38:00,73.4,58.1,29.52,SSE,158,13.9,13.9,59,0.00,,,0.04,WUHU216HW,2013-05-30 22:38:00,
2013-05-30 17:43:00,73.4,58.1,29.52,SSE,158,14.5,14.5,59,0.00,,,0.04,WUHU216HW,2013-05-30 22:43:00,
2013-05-30 17:48:00,73.4,58.1,29.52,SSE,158,15.4,15.4,59,0.00,,,0.04,WUHU216HW,2013-05-30 22:48:00,
2013-05-30 17:53:00,74.8,59.0,29.52,SSE,158,6.4,14.8,58,0.00,,,0.04,WUHU216HW,2013-05-30 22:53:00,
2013-05-30 17:58:00,75.0,58.2,29.52,South,180,12.6,14.8,56,0.00,,,0.04,WUHU216HW,2013-05-30 22:58:00,
2013-05-30 18:03:00,74.8,58.0,29.52,South,180,21.7,21.7,56,0.00,,,0.04,WUHU216HW,2013-05-30 23:03:00,
2013-05-30 18:08:00,75.0,57.7,29.52,SE,135,6.6,22.4,55,0.00,,,0.04,WUHU216HW,2013-05-30 23:08:00,
2013-05-30 18:13:00,74.1,57.8,29.52,South,180,7.5,23.4,57,0.00,,,0.04,WUHU216HW,2013-05-30 23:13:00,
2013-05-30 18:18:00,76.1,59.2,29.52,SSE,147,13.8,16.8,56,0.00,,,0.04,WUHU216HW,2013-05-30 23:18:00,
2013-05-30 18:23:00,75.5,58.2,29.52,SSW,203,18.1,18.1,55,0.00,,,0.04,WUHU216HW,2013-05-30 23:23:00,
2013-05-30 18:28:00,76.1,58.2,29.52,SSE,158,13.4,20.9,54,0.00,,,0.04,WUHU216HW,2013-05-30 23:28:00,
2013-05-30 18:33:00,76.8,58.3,29.52,SSE,158,12.8,20.9,53,0.00,,,0.04,WUHU216HW,2013-05-30 23:33:00,
2013-05-30 18:38:00,77.7,58.6,29.52,SE,135,16.4,16.4,52,0.00,,,0.04,WUHU216HW,2013-05-30 23:38:00,
2013-05-30 18:43:00,77.7,58.1,29.52,South,180,22.6,22.9,51,0.00,,,0.04,WUHU216HW,2013-05-30 23:43:00,
2013-05-30 18:48:00,77.5,59.0,29.52,SSE,158,10.4,22.9,53,0.00,,,0.04,WUHU216HW,2013-05-30 23:48:00,
2013-05-30 18:53:00,77.9,59.8,29.52,SSE,158,14.3,19.0,54,0.00,,,0.04,WUHU216HW,2013-05-30 23:53:00,
2013-05-30 18:58:00,77.5,59.5,29.52,SE,135,6.9,14.3,54,0.00,,,0.04,WUHU216HW,2013-05-30 23:58:00,
2013-05-30 19:03:00,76.2,58.8,29.51,SSE,158,10.3,10.3,55,0.00,,,0.04,WUHU216HW,2013-05-31 00:03:00,
2013-05-30 19:08:00,76.1,58.2,29.51,SSE,158,12.5,12.5,54,0.00,,,0.04,WUHU216HW,2013-05-31 00:08:00,
2013-05-30 19:13:00,75.7,58.9,29.51,SE,135,9.8,12.5,56,0.00,,,0.04,WUHU216HW,2013-05-31 00:13:00,
2013-05-30 19:18:00,75.9,59.5,29.52,SSE,154,4.6,10.9,57,0.00,,,0.04,WUHU216HW,2013-05-31 00:18:00,
2013-05-30 19:23:00,75.7,58.9,29.51,East,90,3.1,10.4,56,0.00,,,0.04,WUHU216HW,2013-05-31 00:23:00,
2013-05-30 19:28:00,75.2,58.9,29.51,SSE,158,6.9,6.9,57,0.00,,,0.04,WUHU216HW,2013-05-31 00:28:00,
2013-05-30 19:33:00,75.0,59.2,29.51,SSE,158,8.0,8.0,58,0.00,,,0.04,WUHU216HW,2013-05-31 00:33:00,
2013-05-30 19:38:00,75.9,60.0,29.51,ENE,68,0.0,8.0,58,0.00,,,0.04,WUHU216HW,2013-05-31 00:38:00,
2013-05-30 19:43:00,76.1,59.7,29.51,SSE,158,2.4,7.7,57,0.00,,,0.04,WUHU216HW,2013-05-31 00:43:00,
2013-05-30 19:48:00,73.9,59.1,29.51,East,90,6.1,6.1,60,0.00,,,0.04,WUHU216HW,2013-05-31 00:48:00,
2013-05-30 19:53:00,73.0,58.7,29.52,ESE,113,0.7,6.1,61,0.00,,,0.04,WUHU216HW,2013-05-31 00:53:00,
2013-05-30 19:58:00,72.3,58.5,29.52,SE,135,0.0,6.1,62,0.00,,,0.04,WUHU216HW,2013-05-31 00:58:00,
2013-05-30 20:03:00,70.5,57.7,29.52,ESE,113,0.0,1.3,64,0.00,,,0.04,WUHU216HW,2013-05-31 01:03:00,
2013-05-30 20:08:00,69.6,57.7,29.52,SSE,158,0.3,3.0,66,0.00,,,0.04,WUHU216HW,2013-05-31 01:08:00,
2013-05-30 20:13:00,69.0,58.0,29.51,SSE,158,7.5,7.5,68,0.00,,,0.04,WUHU216HW,2013-05-31 01:13:00,
2013-05-30 20:18:00,68.3,57.3,29.51,ESE,113,0.0,7.5,68,0.00,,,0.04,WUHU216HW,2013-05-31 01:18:00,
2013-05-30 20:23:00,67.8,57.3,29.52,SE,135,0.0,3.9,69,0.00,,,0.04,WUHU216HW,2013-05-31 01:23:00,
2013-05-30 20:28:00,67.6,57.5,29.52,SE,135,0.0,0.0,70,0.00,,,0.04,WUHU216HW,2013-05-31 01:28:00,
2013-05-30 20:33:00,66.9,57.2,29.52,SSE,158,0.0,0.0,71,0.00,,,0.04,WUHU216HW,2013-05-31 01:33:00,
2013-05-30 20:38:00,66.7,57.4,29.52,SE,135,0.0,9.1,72,0.00,,,0.04,WUHU216HW,2013-05-31 01:38:00,
2013-05-30 20:43:00,66.3,57.4,29.52,ESE,113,0.0,8.8,73,0.00,,,0.04,WUHU216HW,2013-05-31 01:43:00,
2013-05-30 20:48:00,66.3,57.8,29.52,ESE,113,4.1,4.1,74,0.00,,,0.04,WUHU216HW,2013-05-31 01:48:00,
2013-05-30 20:53:00,66.0,57.8,29.52,East,90,1.3,4.0,75,0.00,,,0.04,WUHU216HW,2013-05-31 01:53:00,
2013-05-30 20:58:00,66.0,57.8,29.52,ENE,68,5.0,5.0,75,0.00,,,0.04,WUHU216HW,2013-05-31 01:58:00,
2013-05-30 21:03:00,65.8,57.6,29.52,East,90,0.0,5.0,75,0.00,,,0.04,WUHU216HW,2013-05-31 02:03:00,
2013-05-30 21:08:00,65.6,57.4,29.52,SE,135,0.0,0.0,75,0.00,,,0.04,WUHU216HW,2013-05-31 02:08:00,
2013-05-30 21:13:00,65.4,57.6,29.52,East,90,1.0,7.7,76,0.00,,,0.04,WUHU216HW,2013-05-31 02:13:00,
2013-05-30 21:18:00,65.3,57.1,29.52,SE,135,6.1,7.7,75,0.00,,,0.04,WUHU216HW,2013-05-31 02:18:00,
2013-05-30 21:23:00,65.3,56.7,29.52,SE,135,0.0,6.1,74,0.00,,,0.04,WUHU216HW,2013-05-31 02:23:00,
2013-05-30 21:28:00,65.3,56.7,29.52,SE,135,0.0,6.4,74,0.00,,,0.04,WUHU216HW,2013-05-31 02:28:00,
2013-05-30 21:33:00,65.3,56.7,29.52,East,90,2.5,7.5,74,0.00,,,0.04,WUHU216HW,2013-05-31 02:33:00,
2013-05-30 21:38:00,65.4,56.9,29.52,ESE,113,5.8,7.5,74,0.00,,,0.04,WUHU216HW,2013-05-31 02:38:00,
2013-05-30 21:43:00,65.4,56.9,29.53,SSE,158,0.0,7.4,74,0.00,,,0.04,WUHU216HW,2013-05-31 02:43:00,
2013-05-30 21:48:00,65.3,56.7,29.53,East,90,0.0,7.4,74,0.00,,,0.04,WUHU216HW,2013-05-31 02:48:00,
2013-05-30 21:53:00,65.1,56.9,29.52,ESE,113,0.0,0.0,75,0.00,,,0.04,WUHU216HW,2013-05-31 02:53:00,
2013-05-30 21:58:00,64.9,57.1,29.53,SE,135,1.8,1.8,76,0.00,,,0.04,WUHU216HW,2013-05-31 02:58:00,
2013-05-30 22:03:00,64.5,57.5,29.53,ESE,113,0.0,7.4,78,0.00,,,0.04,WUHU216HW,2013-05-31 03:03:00,
2013-05-30 22:08:00,64.5,57.5,29.53,ESE,113,5.8,7.8,78,0.00,,,0.04,WUHU216HW,2013-05-31 03:08:00,
2013-05-30 22:13:00,64.2,57.2,29.53,SE,135,5.5,6.6,78,0.00,,,0.04,WUHU216HW,2013-05-31 03:13:00,
2013-05-30 22:18:00,64.2,57.2,29.53,East,90,4.8,7.0,78,0.00,,,0.04,WUHU216HW,2013-05-31 03:18:00,
2013-05-30 22:23:00,64.0,57.0,29.52,SE,135,7.0,7.0,78,0.00,,,0.04,WUHU216HW,2013-05-31 03:23:00,
2013-05-30 22:27:00,63.6,56.6,29.52,East,90,7.2,7.2,78,0.00,,,0.04,WUHU216HW,2013-05-31 03:27:00,
2013-05-30 22:32:00,63.5,57.2,29.52,SE,125,1.9,7.5,80,0.00,,,0.04,WUHU216HW,2013-05-31 03:32:00,
2013-05-30 22:37:00,63.5,57.2,29.52,East,90,5.0,5.0,80,0.00,,,0.04,WUHU216HW,2013-05-31 03:37:00,
2013-05-30 22:42:00,63.3,57.0,29.52,East,90,0.0,5.0,80,0.00,,,0.04,WUHU216HW,2013-05-31 03:42:00,
2013-05-30 22:47:00,63.1,56.8,29.52,ESE,123,6.4,6.6,80,0.00,,,0.04,WUHU216HW,2013-05-31 03:47:00,
2013-05-30 22:52:00,63.1,56.8,29.52,SE,135,6.9,8.0,80,0.00,,,0.04,WUHU216HW,2013-05-31 03:52:00,
2013-05-30 22:57:00,63.1,56.8,29.52,East,90,2.0,7.7,80,0.00,,,0.04,WUHU216HW,2013-05-31 03:57:00,
2013-05-30 23:01:00,63.1,56.8,29.51,East,90,7.3,7.3,80,0.00,,,0.04,WUHU216HW,2013-05-31 04:01:00,
2013-05-30 23:06:00,63.1,56.8,29.51,SE,135,0.5,7.7,80,0.00,,,0.04,WUHU216HW,2013-05-31 04:06:00,
2013-05-30 23:11:00,62.7,56.8,29.51,SE,135,7.5,8.0,81,0.00,,,0.04,WUHU216HW,2013-05-31 04:11:00,
2013-05-30 23:16:00,62.7,56.8,29.51,SE,130,4.6,8.4,81,0.00,,,0.04,WUHU216HW,2013-05-31 04:16:00,
2013-05-30 23:21:00,62.4,56.4,29.51,SE,135,2.4,8.0,81,0.00,,,0.04,WUHU216HW,2013-05-31 04:21:00,
2013-05-30 23:26:00,62.4,56.4,29.51,ESE,113,1.3,6.6,81,0.00,,,0.04,WUHU216HW,2013-05-31 04:26:00,
2013-05-30 23:31:00,62.2,56.3,29.51,SE,135,3.3,6.9,81,0.00,,,0.04,WUHU216HW,2013-05-31 04:31:00,
2013-05-30 23:36:00,62.0,56.1,29.51,SSE,158,8.9,8.9,81,0.00,,,0.04,WUHU216HW,2013-05-31 04:36:00,
2013-05-30 23:41:00,62.0,56.1,29.50,SE,135,2.1,8.9,81,0.00,,,0.04,WUHU216HW,2013-05-31 04:41:00,
2013-05-30 23:46:00,61.8,55.9,29.51,SE,135,4.1,4.1,81,0.00,,,0.04,WUHU216HW,2013-05-31 04:46:00,
2013-05-30 23:51:00,61.8,55.9,29.50,ESE,113,3.3,4.1,81,0.00,,,0.04,WUHU216HW,2013-05-31 04:51:00,
2013-05-30 23:56:00,61.8,55.9,29.51,ESE,113,3.0,3.3,81,0.00,,,0.04,WUHU216HW,2013-05-31 04:56:00,